Time;durP1;ratioP1;P1;durP2;ratioP2;P2;SDS_P1;SDS_P2;PMS_P1;PMS_P2;Temp;Humidity;BMP_temperature;BMP_pressure;BME280_temperature;BME280_humidity;BME280_pressure;Samples;Min_cycle;Max_cycle;Signal;HPM_P1;HPM_P2
2022/12/14 00:00:09;;;;;;;36.73;20.60;;;-4.30;99.90;;;-4.38;77.21;99935.69;5018308;28;20257;-70
2022/12/14 00:02:37;;;;;;;37.63;21.80;;;-4.30;99.90;;;-4.37;76.80;99926.47;5016342;28;20253;-72
2022/12/14 00:05:06;;;;;;;36.07;20.33;;;-4.30;99.90;;;-4.41;76.87;99938.03;5017516;28;20237;-70
2022/12/14 00:07:36;;;;;;;39.90;20.83;;;-4.30;99.90;;;-4.45;77.19;99937.84;5012876;28;20206;-71
2022/12/14 00:10:06;;;;;;;42.83;21.97;;;-4.30;99.90;;;-4.47;77.29;99942.78;5013511;28;20257;-70
2022/12/14 00:12:34;;;;;;;40.57;21.80;;;-4.40;99.90;;;-4.48;77.36;99947.75;5012068;28;20203;-70
2022/12/14 00:15:03;;;;;;;41.13;20.73;;;-4.40;99.90;;;-4.48;77.47;99941.06;5015742;28;20610;-72
2022/12/14 00:17:32;;;;;;;38.73;21.37;;;-4.40;99.90;;;-4.50;77.57;99930.06;5013317;28;20746;-73
2022/12/14 00:20:00;;;;;;;37.23;21.37;;;-4.40;99.90;;;-4.49;77.29;99941.88;5012766;28;20215;-70
2022/12/14 00:22:29;;;;;;;36.37;20.67;;;-4.40;99.90;;;-4.48;77.51;99938.56;5012666;28;20636;-70
2022/12/14 00:24:59;;;;;;;41.87;21.67;;;-4.40;99.90;;;-4.48;77.43;99938.56;5019552;28;20288;-71
2022/12/14 00:27:28;;;;;;;36.67;21.27;;;-4.40;99.90;;;-4.50;77.91;99932.56;5017511;28;20230;-73
2022/12/14 00:29:56;;;;;;;34.13;19.77;;;-4.40;99.90;;;-4.49;77.49;99928.41;5012347;28;20322;-70
2022/12/14 00:32:25;;;;;;;45.83;22.53;;;-4.40;99.90;;;-4.51;77.61;99922.47;5016424;28;20657;-72
2022/12/14 00:34:53;;;;;;;41.33;21.43;;;-4.40;99.90;;;-4.51;77.56;99922.47;5030921;28;20299;-71
2022/12/14 00:37:22;;;;;;;36.43;20.27;;;-4.40;99.90;;;-4.53;77.65;99929.06;5018468;28;20243;-71
2022/12/14 00:39:50;;;;;;;34.37;21.37;;;-4.40;99.90;;;-4.51;78.07;99925.84;5023614;28;20264;-72
2022/12/14 00:42:20;;;;;;;38.10;20.23;;;-4.40;99.90;;;-4.53;77.54;99924.03;5018046;28;20203;-72
2022/12/14 00:44:49;;;;;;;38.63;21.50;;;-4.40;99.90;;;-4.50;77.58;99937.59;5015954;28;20276;-72
2022/12/14 00:47:17;;;;;;;35.33;20.23;;;-4.40;99.90;;;-4.51;77.64;99938.41;5023549;28;20261;-71
2022/12/14 00:49:45;;;;;;;35.33;20.77;;;-4.40;99.90;;;-4.51;77.43;99928.34;5014186;28;20257;-72
2022/12/14 00:52:15;;;;;;;40.33;22.03;;;-4.40;99.90;;;-4.50;77.41;99930.06;5036056;28;20207;-70
2022/12/14 00:54:44;;;;;;;43.07;22.80;;;-4.40;99.90;;;-4.52;77.45;99931.66;5013016;28;20199;-72
2022/12/14 00:57:13;;;;;;;39.60;21.13;;;-4.40;99.90;;;-4.50;77.90;99937.59;5014637;28;20242;-70
2022/12/14 00:59:42;;;;;;;34.63;21.63;;;-4.40;99.90;;;-4.49;77.60;99933.44;5010857;28;20250;-70
2022/12/14 01:02:11;;;;;;;44.93;22.67;;;-4.40;99.90;;;-4.48;77.32;99940.22;5012125;28;20215;-70
2022/12/14 01:04:39;;;;;;;43.27;23.93;;;-4.40;99.90;;;-4.49;77.41;99936.84;5012228;28;20207;-71
2022/12/14 01:07:08;;;;;;;38.50;21.73;;;-4.40;99.90;;;-4.49;77.27;99925.88;5022110;28;20451;-70
2022/12/14 01:09:36;;;;;;;43.03;23.17;;;-4.40;99.90;;;-4.50;77.11;99930.06;5016056;28;20210;-70
2022/12/14 01:12:05;;;;;;;43.00;23.57;;;-4.40;99.90;;;-4.49;77.09;99931.81;5031113;28;20747;-70
2022/12/14 01:14:34;;;;;;;40.03;21.67;;;-4.40;99.90;;;-4.53;77.07;99926.53;5011548;28;20499;-71
2022/12/14 01:17:05;;;;;;;35.93;21.40;;;-4.40;99.90;;;-4.53;76.97;99932.44;5013114;28;20234;-71
2022/12/14 01:19:34;;;;;;;43.87;23.17;;;-4.50;99.90;;;-4.56;76.91;99939.84;5023711;28;20199;-71
2022/12/14 01:22:03;;;;;;;40.53;23.93;;;-4.50;99.90;;;-4.54;77.05;99933.22;5010942;28;20306;-73
2022/12/14 01:24:31;;;;;;;39.37;20.87;;;-4.50;99.90;;;-4.55;76.65;99921.44;5011551;28;20207;-70
2022/12/14 01:27:01;;;;;;;43.63;23.97;;;-4.50;99.90;;;-4.52;76.94;99934.16;5021398;28;20227;-70
2022/12/14 01:29:29;;;;;;;42.53;24.03;;;-4.50;99.90;;;-4.52;76.46;99930.81;5019265;28;20234;-72
2022/12/14 01:31:57;;;;;;;41.33;23.30;;;-4.50;99.90;;;-4.58;76.92;99921.31;5015790;28;20732;-70
2022/12/14 01:34:28;;;;;;;41.73;23.80;;;-4.50;99.90;;;-4.59;76.37;99922.09;5011148;28;20640;-71
2022/12/14 01:36:56;;;;;;;37.17;22.40;;;-4.50;99.90;;;-4.60;76.66;99925.41;5011936;28;20230;-71
2022/12/14 01:39:25;;;;;;;40.63;23.07;;;-4.40;99.90;;;-4.59;76.46;99919.59;5017288;28;20242;-70
2022/12/14 01:41:53;;;;;;;43.27;23.63;;;-4.60;99.90;;;-4.59;76.50;99923.75;5012621;28;20634;-71
2022/12/14 01:44:55;;;;;;;43.07;22.13;;;-4.60;99.90;;;-4.62;75.70;99930.34;5019068;28;20210;-70
2022/12/14 01:47:31;;;;;;;41.47;21.90;;;-4.60;99.90;;;-4.63;76.49;99927.78;5009223;28;20236;-72
2022/12/14 01:50:08;;;;;;;35.90;20.97;;;-4.60;99.90;;;-4.61;76.07;99926.19;5018693;28;20203;-71
2022/12/14 01:52:41;;;;;;;40.40;22.67;;;-4.50;99.90;;;-4.65;76.03;99920.16;5029228;28;20244;-72
2022/12/14 01:55:14;;;;;;;37.13;21.37;;;-4.60;99.90;;;-4.62;75.79;99924.47;5017634;28;20207;-71
2022/12/14 01:57:48;;;;;;;36.03;22.17;;;-4.60;99.90;;;-4.62;75.99;99929.50;5021225;28;20245;-72
2022/12/14 02:00:17;;;;;;;42.87;22.70;;;-4.60;99.90;;;-4.60;75.88;99930.44;5013644;28;20264;-73
2022/12/14 02:02:53;;;;;;;42.27;22.40;;;-4.60;99.90;;;-4.61;75.90;99923.66;5011852;28;20298;-71
2022/12/14 02:05:25;;;;;;;38.70;22.00;;;-4.60;99.90;;;-4.63;75.56;99913.56;5025377;28;20322;-72
2022/12/14 02:07:55;;;;;;;37.47;22.67;;;-4.60;99.90;;;-4.63;75.35;99917.72;5012042;28;20207;-69
2022/12/14 02:10:27;;;;;;;41.53;22.13;;;-4.60;99.90;;;-4.65;75.67;99911.75;5027411;28;20237;-73
2022/12/14 02:13:03;;;;;;;39.90;21.77;;;-4.60;99.90;;;-4.63;74.93;99917.72;5021363;28;20561;-72
2022/12/14 02:15:33;;;;;;;42.03;23.23;;;-4.60;99.90;;;-4.68;75.35;99912.47;5024683;28;20263;-71
2022/12/14 02:18:04;;;;;;;40.30;21.53;;;-4.60;99.90;;;-4.66;75.07;99923.47;5044303;28;20209;-70
2022/12/14 02:20:46;;;;;;;41.77;21.97;;;-4.70;99.90;;;-4.70;75.29;99913.19;5015537;28;20781;-71
2022/12/14 02:24:15;;;;;;;42.93;22.93;;;-4.70;99.90;;;-4.74;75.45;99917.22;5015670;28;20274;-70
2022/12/14 02:27:10;;;;;;;36.53;21.37;;;-4.70;99.90;;;-4.76;75.23;99920.44;5023406;28;20668;-71
2022/12/14 02:30:06;;;;;;;39.37;22.03;;;-4.70;99.90;;;-4.78;75.08;99922.03;5015718;28;20204;-72
2022/12/14 02:33:08;;;;;;;39.87;20.70;;;-4.80;99.90;;;-4.82;75.00;99920.13;5041015;28;21100;-72
2022/12/14 02:35:46;;;;;;;43.50;21.50;;;-4.80;99.90;;;-4.81;75.18;99921.88;5028559;28;20244;-73
2022/12/14 02:38:41;;;;;;;35.27;21.23;;;-4.80;99.90;;;-4.82;75.64;99922.66;5041681;28;20266;-73
2022/12/14 02:41:22;;;;;;;41.87;20.87;;;-4.80;99.90;;;-4.82;74.87;99921.03;5021472;28;20573;-73
2022/12/14 02:44:02;;;;;;;41.03;23.10;;;-4.80;99.90;;;-4.83;74.94;99931.00;5019536;28;20294;-72
2022/12/14 02:46:41;;;;;;;41.37;21.57;;;-4.80;99.90;;;-4.84;75.01;99925.09;5028467;28;20665;-72
2022/12/14 02:49:30;;;;;;;41.03;21.63;;;-4.80;99.90;;;-4.83;75.16;99933.50;5016220;28;20200;-73
2022/12/14 02:52:06;;;;;;;40.67;22.33;;;-4.80;99.90;;;-4.86;75.31;99930.06;5013909;28;20238;-71
2022/12/14 02:54:45;;;;;;;36.83;22.70;;;-4.80;99.90;;;-4.88;74.75;99931.63;5017147;28;20286;-73
2022/12/14 02:57:21;;;;;;;42.10;23.03;;;-4.80;99.90;;;-4.88;74.91;99926.59;5014110;28;20199;-73
2022/12/14 02:59:54;;;;;;;42.90;24.53;;;-4.80;99.90;;;-4.91;74.45;99936.50;5020667;28;20313;-71
2022/12/14 03:02:25;;;;;;;38.00;23.40;;;-4.90;99.90;;;-4.92;74.59;99932.28;5012162;28;20600;-71
2022/12/14 03:04:53;;;;;;;41.97;23.03;;;-4.90;99.90;;;-4.93;74.75;99937.25;5013130;28;20227;-71
2022/12/14 03:07:35;;;;;;;44.60;23.13;;;-4.80;99.90;;;-4.96;74.62;99930.41;5019824;28;20300;-74
2022/12/14 03:10:16;;;;;;;37.57;20.63;;;-4.90;99.90;;;-4.94;74.88;99936.34;5017909;28;20204;-71
2022/12/14 03:12:51;;;;;;;38.50;21.40;;;-4.90;99.90;;;-4.96;74.69;99942.97;5013132;28;20227;-73
2022/12/14 03:15:23;;;;;;;37.23;21.37;;;-4.90;99.90;;;-4.99;74.54;99932.78;5012673;28;20235;-71
2022/12/14 03:17:58;;;;;;;32.80;19.83;;;-4.90;99.90;;;-5.01;75.17;99929.31;5014199;28;20719;-69
2022/12/14 03:20:33;;;;;;;40.07;21.30;;;-4.90;99.90;;;-5.03;75.18;99923.38;5013699;28;20636;-71
2022/12/14 03:23:07;;;;;;;42.87;21.13;;;-4.90;99.90;;;-5.02;75.16;99930.09;5013482;28;20304;-70
2022/12/14 03:25:44;;;;;;;38.77;21.13;;;-4.90;99.90;;;-5.03;75.23;99935.94;5016945;28;20208;-71
2022/12/14 03:28:22;;;;;;;37.97;21.10;;;-4.80;99.90;;;-5.04;75.78;99933.31;5013431;28;20199;-70
2022/12/14 03:30:57;;;;;;;37.77;20.80;;;-5.00;99.90;;;-5.05;75.68;99934.97;5024720;28;20202;-71
2022/12/14 03:33:31;;;;;;;36.50;19.83;;;-4.90;99.90;;;-5.05;76.00;99937.47;4984520;28;20254;-71
2022/12/14 03:36:09;;;;;;;35.77;20.23;;;-5.00;99.90;;;-5.08;76.01;99936.47;4992058;28;20235;-69
2022/12/14 03:38:42;;;;;;;39.03;21.23;;;-5.00;99.90;;;-5.11;75.98;99942.22;4993690;28;20373;-70
2022/12/14 03:41:22;;;;;;;37.40;20.87;;;-5.00;99.90;;;-5.12;76.27;99936.34;4993981;28;20254;-69
2022/12/14 03:44:10;;;;;;;38.53;21.83;;;-5.00;99.90;;;-5.11;76.28;99929.66;4980750;28;20240;-72
2022/12/14 03:46:49;;;;;;;39.77;19.67;;;-5.00;99.90;;;-5.11;76.63;99938.06;4988298;28;20284;-70
2022/12/14 03:49:33;;;;;;;36.67;21.17;;;-5.00;99.90;;;-5.09;76.58;99940.63;4989777;28;20188;-73
2022/12/14 03:52:09;;;;;;;40.67;21.97;;;-5.00;99.90;;;-5.06;76.75;99938.28;4988137;28;20654;-72
2022/12/14 03:54:49;;;;;;;39.10;21.77;;;-5.00;99.90;;;-5.04;76.70;99939.22;4991208;28;20298;-71
2022/12/14 03:57:30;;;;;;;39.90;20.97;;;-4.90;99.90;;;-5.05;76.28;99941.66;4992329;28;20207;-73
2022/12/14 04:00:05;;;;;;;36.30;20.73;;;-4.90;99.90;;;-5.04;77.09;99939.22;4976545;28;20279;-72
2022/12/14 04:02:41;;;;;;;35.70;20.50;;;-4.90;99.90;;;-5.02;76.81;99942.66;4990859;28;20672;-73
2022/12/14 04:05:18;;;;;;;33.80;20.23;;;-4.90;99.90;;;-5.02;76.66;99942.66;4992190;28;20253;-73
2022/12/14 04:07:55;;;;;;;38.97;19.33;;;-4.90;99.90;;;-5.01;76.72;99946.03;4991026;28;20582;-73
2022/12/14 04:19:06;;;;;;;41.57;21.47;;;-4.90;99.90;;;-4.99;76.47;99936.94;4987798;28;20212;-71
2022/12/14 04:21:43;;;;;;;38.73;20.77;;;-4.90;99.90;;;-5.03;76.68;99938.44;4986497;28;20199;-71
2022/12/14 04:27:09;;;;;;;34.83;19.27;;;-4.90;99.90;;;-4.97;76.49;99931.22;4992613;28;20242;-72
2022/12/14 04:32:33;;;;;;;37.97;20.43;;;-4.90;99.90;;;-4.92;76.37;99933.94;5001914;28;20294;-70
2022/12/14 04:35:12;;;;;;;34.70;19.43;;;-4.80;99.90;;;-4.93;76.05;99927.19;5021727;28;20230;-70
2022/12/14 04:37:48;;;;;;;34.30;19.73;;;-4.90;99.90;;;-4.96;75.98;99937.09;5042195;28;20743;-72
2022/12/14 04:40:21;;;;;;;38.07;20.10;;;-4.90;99.90;;;-5.00;75.64;99932.72;5023005;28;20564;-70
2022/12/14 04:42:55;;;;;;;38.00;21.17;;;-4.90;99.90;;;-5.02;75.75;99932.63;5020623;28;20226;-72
2022/12/14 04:45:27;;;;;;;36.10;20.50;;;-4.90;99.90;;;-5.01;75.73;99934.31;5028084;28;20692;-70
2022/12/14 04:48:05;;;;;;;38.37;21.80;;;-5.00;99.90;;;-5.05;75.61;99926.59;5017452;28;20342;-72
2022/12/14 04:50:39;;;;;;;34.77;19.90;;;-5.00;99.90;;;-5.05;75.48;99929.94;5020073;28;20223;-71
2022/12/14 04:53:14;;;;;;;38.63;21.07;;;-5.00;99.90;;;-5.07;75.23;99929.03;5013662;28;20341;-71
2022/12/14 04:55:51;;;;;;;37.97;19.87;;;-5.00;99.90;;;-5.08;75.44;99924.81;5023919;28;20234;-72
2022/12/14 04:58:24;;;;;;;42.77;21.10;;;-5.00;99.90;;;-5.11;75.38;99923.00;5025847;28;20210;-72
2022/12/14 05:01:11;;;;;;;36.37;20.13;;;-5.00;99.90;;;-5.11;75.41;99929.66;5011187;28;20785;-71
2022/12/14 05:03:54;;;;;;;35.53;20.93;;;-5.00;99.90;;;-5.16;75.53;99924.41;5014236;28;20234;-70
2022/12/14 05:06:32;;;;;;;39.57;21.80;;;-5.10;99.90;;;-5.19;75.31;99925.91;5011856;28;20557;-71
2022/12/14 05:09:14;;;;;;;38.47;22.63;;;-5.20;99.90;;;-5.22;75.50;99919.09;5021555;28;20301;-72
2022/12/14 05:11:51;;;;;;;38.17;21.53;;;-5.10;99.90;;;-5.26;75.62;99911.34;5016266;28;20248;-73
2022/12/14 05:14:28;;;;;;;38.50;21.83;;;-5.20;99.90;;;-5.30;75.61;99906.94;5012189;28;20203;-75
2022/12/14 05:16:57;;;;;;;39.17;20.97;;;-5.20;99.90;;;-5.33;76.21;99904.28;5017916;28;20581;-73
2022/12/14 05:19:32;;;;;;;38.83;20.30;;;-5.20;99.90;;;-5.37;75.77;99909.16;5012409;28;20714;-73
2022/12/14 05:22:05;;;;;;;37.00;21.40;;;-5.20;99.90;;;-5.40;76.12;99909.00;5024897;28;20206;-72
2022/12/14 05:24:35;;;;;;;41.07;20.83;;;-5.30;99.90;;;-5.43;76.49;99906.34;5018742;28;20225;-74
2022/12/14 05:27:03;;;;;;;38.80;21.60;;;-5.30;99.90;;;-5.41;76.61;99913.97;5017374;28;20269;-75
2022/12/14 05:29:32;;;;;;;37.90;20.50;;;-5.30;99.90;;;-5.42;76.78;99904.69;5022285;28;20611;-72
2022/12/14 05:32:01;;;;;;;41.47;21.27;;;-5.30;99.90;;;-5.47;76.41;99906.97;5022396;28;20292;-73
2022/12/14 05:34:30;;;;;;;40.90;21.97;;;-5.30;99.90;;;-5.47;76.78;99909.47;5027790;28;20207;-72
2022/12/14 05:36:59;;;;;;;35.83;20.43;;;-5.40;99.90;;;-5.46;76.51;99907.84;5023933;28;20206;-74
2022/12/14 05:39:27;;;;;;;37.73;20.17;;;-5.40;99.90;;;-5.47;76.34;99917.00;5027732;28;20199;-73
2022/12/14 05:41:57;;;;;;;39.27;21.47;;;-5.30;99.90;;;-5.48;76.45;99922.84;5011757;28;20207;-74
2022/12/14 05:44:25;;;;;;;38.63;20.90;;;-5.40;99.90;;;-5.50;76.32;99914.34;5017881;28;20618;-72
2022/12/14 05:46:54;;;;;;;37.97;21.47;;;-5.40;99.90;;;-5.54;76.44;99914.97;5010326;28;20265;-72
2022/12/14 05:49:23;;;;;;;34.27;19.43;;;-5.50;99.90;;;-5.53;76.15;99916.69;5011686;28;20648;-74
2022/12/14 05:51:51;;;;;;;36.60;18.70;;;-5.50;99.90;;;-5.53;76.41;99918.34;5015517;28;20560;-73
2022/12/14 05:54:20;;;;;;;35.50;19.80;;;-5.50;99.90;;;-5.53;76.26;99923.38;5020151;28;20270;-72
2022/12/14 05:56:48;;;;;;;36.27;19.83;;;-5.50;99.90;;;-5.53;76.24;99923.38;5017521;28;20610;-75
2022/12/14 05:59:18;;;;;;;36.17;20.27;;;-5.50;99.90;;;-5.55;76.25;99924.97;5021983;28;20674;-73
2022/12/14 06:01:49;;;;;;;36.83;19.07;;;-5.40;99.90;;;-5.54;75.77;99927.53;5017121;28;20682;-74
2022/12/14 06:04:18;;;;;;;40.60;20.43;;;-5.50;99.90;;;-5.60;76.20;99927.22;5018992;28;20697;-74
2022/12/14 06:06:47;;;;;;;39.40;22.47;;;-5.50;99.90;;;-5.64;76.04;99931.22;5019863;28;20215;-72
2022/12/14 06:09:16;;;;;;;36.27;20.50;;;-5.50;99.90;;;-5.66;76.61;99935.31;5014691;28;20326;-72
2022/12/14 06:11:46;;;;;;;37.23;19.97;;;-5.50;99.90;;;-5.66;76.35;99941.97;5014626;28;20262;-73
2022/12/14 06:14:14;;;;;;;37.90;19.80;;;-5.50;99.90;;;-5.69;76.09;99941.81;5019690;28;20214;-75
2022/12/14 06:16:46;;;;;;;35.90;20.73;;;-5.60;99.90;;;-5.71;76.00;99941.72;5023132;28;20436;-75
2022/12/14 06:19:15;;;;;;;42.53;20.07;;;-5.60;99.90;;;-5.69;76.32;99944.31;5026132;28;20522;-76
2022/12/14 06:21:44;;;;;;;39.57;19.93;;;-5.60;99.90;;;-5.70;75.52;99942.59;5028546;28;20210;-74
2022/12/14 06:24:13;;;;;;;42.97;21.73;;;-5.60;99.90;;;-5.67;76.50;99942.75;5026662;28;20221;-78
2022/12/14 06:26:42;;;;;;;39.47;20.17;;;-5.60;99.90;;;-5.65;75.74;99941.19;5025801;28;20620;-71
2022/12/14 06:29:15;;;;;;;37.47;21.67;;;-5.60;99.90;;;-5.65;75.80;99936.16;5020824;28;20230;-75
2022/12/14 06:31:46;;;;;;;35.97;20.53;;;-5.60;99.90;;;-5.66;75.48;99934.44;5015203;28;20285;-75
2022/12/14 06:34:17;;;;;;;40.10;20.87;;;-5.50;99.90;;;-5.64;75.43;99936.22;5011714;28;20274;-73
2022/12/14 06:36:52;;;;;;;39.23;20.73;;;-5.50;99.90;;;-5.60;75.55;99942.28;5013489;28;20214;-73
2022/12/14 06:39:20;;;;;;;36.10;19.03;;;-5.50;99.90;;;-5.63;75.31;99935.47;5009746;28;20294;-76
2022/12/14 06:41:50;;;;;;;35.37;20.63;;;-5.50;99.90;;;-5.63;75.20;99939.63;5012014;28;20635;-73
2022/12/14 06:44:19;;;;;;;36.80;20.20;;;-5.50;99.90;;;-5.62;75.03;99941.34;5016219;28;20204;-77
2022/12/14 06:46:51;;;;;;;39.50;20.90;;;-5.50;99.90;;;-5.64;75.04;99940.41;5012637;28;20212;-75
2022/12/14 06:49:19;;;;;;;43.97;28.33;;;-5.60;99.90;;;-5.69;75.34;99946.84;5013435;28;20479;-75
2022/12/14 06:51:48;;;;;;;41.70;21.27;;;-5.60;99.90;;;-5.72;74.93;99946.66;5016707;28;20265;-75
2022/12/14 06:54:18;;;;;;;42.58;26.70;;;-5.60;99.90;;;-5.72;75.04;99940.00;5015852;28;20462;-75
2022/12/14 06:56:47;;;;;;;42.33;22.57;;;-5.60;99.90;;;-5.71;74.39;99948.38;5013261;28;20238;-72
2022/12/14 06:59:16;;;;;;;39.67;21.83;;;-5.60;99.90;;;-5.68;74.65;99946.91;5021086;28;20219;-72
2022/12/14 07:01:45;;;;;;;36.17;20.60;;;-5.60;99.90;;;-5.67;74.66;99931.09;5015492;28;20246;-72
2022/12/14 07:04:20;;;;;;;37.67;20.07;;;-5.60;99.90;;;-5.66;74.67;99945.34;5013190;28;20212;-74
2022/12/14 07:06:49;;;;;;;44.00;26.88;;;-5.60;99.90;;;-5.67;74.87;99940.22;5015992;28;20450;-76
2022/12/14 07:09:18;;;;;;;39.40;21.03;;;-5.60;99.90;;;-5.68;74.81;99951.06;5015737;28;20219;-75
2022/12/14 07:11:49;;;;;;;37.63;19.27;;;-5.60;99.90;;;-5.64;74.62;99937.88;5025121;28;20231;-76
2022/12/14 07:14:19;;;;;;;35.10;20.47;;;-5.50;99.90;;;-5.60;74.47;99944.78;5023071;28;20258;-78
2022/12/14 07:16:48;;;;;;;32.87;19.33;;;-5.50;99.90;;;-5.55;74.63;99952.56;5018722;28;20230;-76
2022/12/14 07:19:18;;;;;;;36.90;19.83;;;-5.50;99.90;;;-5.51;74.53;99954.44;5027136;28;20210;-77
2022/12/14 07:21:48;;;;;;;37.17;19.33;;;-5.40;99.90;;;-5.47;74.67;99947.13;5036259;28;20206;-76
2022/12/14 07:24:17;;;;;;;37.53;19.43;;;-5.40;99.90;;;-5.37;74.45;99964.41;5038815;28;20198;-76
2022/12/14 07:26:46;;;;;;;35.70;18.07;;;-5.30;99.90;;;-5.32;74.16;99951.22;5027529;28;20234;-77
2022/12/14 07:29:16;;;;;;;38.27;19.33;;;-5.30;99.90;;;-5.29;73.67;99952.22;5017627;28;20235;-75
2022/12/14 07:31:44;;;;;;;34.40;18.90;;;-5.20;99.90;;;-5.27;73.69;99950.63;5029208;28;20238;-75
2022/12/14 07:34:18;;;;;;;37.10;20.37;;;-5.20;99.90;;;-5.23;73.50;99952.53;5026453;28;20195;-74
2022/12/14 07:36:50;;;;;;;35.07;19.93;;;-5.10;99.90;;;-5.11;74.38;99949.75;5017988;28;20269;-74
2022/12/14 07:39:23;;;;;;;40.23;19.87;;;-5.00;99.90;;;-4.97;73.76;99962.97;5025381;28;20305;-77
2022/12/14 07:41:53;;;;;;;43.87;22.20;;;-4.90;99.90;;;-4.87;73.33;99960.13;5026596;28;20227;-74
2022/12/14 07:44:22;;;;;;;38.00;20.90;;;-4.70;99.90;;;-4.76;72.55;99960.66;5036816;28;20243;-74
2022/12/14 07:46:50;;;;;;;37.97;21.07;;;-4.60;99.90;;;-4.66;71.98;99953.63;5019264;28;20207;-74
2022/12/14 07:49:21;;;;;;;36.00;19.50;;;-4.60;99.90;;;-4.53;71.88;99949.16;5012894;28;20574;-74
2022/12/14 07:51:51;;;;;;;35.43;19.47;;;-4.40;99.90;;;-4.42;71.40;99948.00;5013519;28;20649;-76
2022/12/14 07:54:20;;;;;;;42.40;21.97;;;-4.30;99.90;;;-4.38;70.75;99940.72;5018951;28;20246;-74
2022/12/14 07:56:49;;;;;;;33.37;18.80;;;-4.20;99.90;;;-4.33;70.22;99945.94;5014482;28;20215;-76
2022/12/14 07:59:20;;;;;;;44.20;21.47;;;-4.20;99.90;;;-4.37;69.60;99937.38;5016240;28;20200;-78
2022/12/14 08:01:54;;;;;;;39.60;19.90;;;-4.20;99.90;;;-4.29;69.50;99944.44;5029762;28;20198;-75
2022/12/14 08:04:24;;;;;;;35.70;19.10;;;-4.20;99.90;;;-4.23;69.42;99949.75;5015390;28;20207;-77
2022/12/14 08:06:53;;;;;;;30.77;18.97;;;-4.10;99.90;;;-4.22;69.17;99941.41;5017374;28;20217;-75
2022/12/14 08:09:21;;;;;;;34.10;20.60;;;-4.10;99.90;;;-4.12;69.19;99951.09;5026481;28;20698;-75
2022/12/14 08:11:49;;;;;;;36.47;20.33;;;-4.00;99.90;;;-4.08;68.70;99945.41;5022746;28;20211;-77
2022/12/14 08:14:19;;;;;;;36.37;19.17;;;-3.90;99.90;;;-3.94;68.27;99949.41;5013384;28;20204;-78
2022/12/14 08:16:49;;;;;;;36.97;19.30;;;-3.80;99.90;;;-3.75;67.96;99948.56;5019849;28;20241;-78
2022/12/14 08:19:19;;;;;;;35.43;19.50;;;-3.60;99.90;;;-3.68;67.23;99940.47;5013046;28;20254;-77
2022/12/14 08:21:48;;;;;;;37.33;18.10;;;-3.50;99.90;;;-3.66;66.55;99938.88;5024857;28;20210;-76
2022/12/14 08:24:17;;;;;;;34.60;19.33;;;-3.40;99.90;;;-3.55;66.13;99943.53;5016618;28;20671;-77
2022/12/14 08:26:46;;;;;;;37.23;19.83;;;-3.40;99.90;;;-3.43;66.37;99933.97;5018263;28;20226;-74
2022/12/14 08:29:17;;;;;;;32.30;19.10;;;-3.30;99.90;;;-3.31;65.55;99928.59;5012487;28;20688;-73
2022/12/14 08:31:46;;;;;;;41.63;21.73;;;-3.20;99.90;;;-3.24;65.27;99930.56;5023395;28;20246;-77
2022/12/14 08:34:20;;;;;;;37.70;20.63;;;-3.10;99.90;;;-3.02;66.70;99933.19;5015613;28;20208;-75
2022/12/14 08:36:50;;;;;;;34.83;19.50;;;-2.90;99.90;;;-2.39;68.90;99943.25;5018347;28;20605;-77
2022/12/14 08:39:20;;;;;;;41.60;20.33;;;-2.20;99.90;;;-0.66;67.89;99939.19;5016427;28;20195;-77
2022/12/14 08:41:48;;;;;;;32.63;18.47;;;-0.30;99.90;;;1.48;61.52;99926.47;5026498;28;20264;-79
2022/12/14 08:44:17;;;;;;;34.37;19.27;;;1.60;99.90;;;3.43;54.25;99917.47;5020798;28;20202;-78
2022/12/14 08:46:46;;;;;;;30.30;18.97;;;3.60;99.90;;;5.19;47.82;99912.72;5023630;28;20606;-77
2022/12/14 08:49:15;;;;;;;36.53;19.47;;;5.30;99.90;;;6.68;42.73;99916.06;5020557;28;20223;-77
2022/12/14 08:51:43;;;;;;;37.33;21.83;;;6.70;99.10;;;8.09;38.79;99896.25;5019289;28;20542;-74
2022/12/14 08:54:13;;;;;;;49.47;23.43;;;7.80;92.70;;;9.24;35.97;99893.00;5029735;28;20712;-76
2022/12/14 08:56:41;;;;;;;35.73;22.43;;;9.00;85.10;;;10.10;34.83;99898.13;5016706;28;20301;-76
2022/12/14 08:59:10;;;;;;;39.47;23.37;;;9.90;75.80;;;10.73;32.87;99887.03;5019406;28;20248;-76
2022/12/14 09:01:58;;;;;;;39.90;24.27;;;10.50;68.70;;;11.55;31.40;99882.22;5019258;28;20203;-76
2022/12/14 09:04:27;;;;;;;30.63;21.27;;;11.30;63.70;;;12.06;30.47;99879.56;5020452;28;20206;-78
2022/12/14 09:06:56;;;;;;;37.97;23.30;;;11.90;61.50;;;12.63;29.27;99882.66;5028046;28;20210;-76
2022/12/14 09:09:26;;;;;;;35.13;23.30;;;12.40;58.00;;;13.02;27.88;99879.13;5020623;28;20273;-76
2022/12/14 09:11:54;;;;;;;33.63;22.93;;;12.80;56.50;;;13.38;27.39;99880.91;5017229;28;20231;-73
2022/12/14 09:14:23;;;;;;;33.13;23.47;;;13.10;54.40;;;13.84;26.63;99877.91;5030287;28;20203;-75
2022/12/14 09:16:51;;;;;;;30.97;21.30;;;13.50;52.80;;;14.12;25.88;99877.16;5023929;28;20238;-75
2022/12/14 09:19:19;;;;;;;33.27;21.57;;;13.80;51.70;;;14.44;25.13;99871.88;5018478;28;20207;-81
2022/12/14 09:21:48;;;;;;;29.70;21.33;;;14.10;49.90;;;14.86;24.22;99863.69;5035005;28;20255;-78
2022/12/14 09:24:16;;;;;;;29.23;20.27;;;14.40;48.90;;;15.31;24.11;99857.84;5012758;28;20311;-78
2022/12/14 09:26:46;;;;;;;27.50;19.97;;;14.80;49.00;;;15.99;22.98;99853.78;5035225;28;20260;-78
2022/12/14 09:29:17;;;;;;;29.17;20.67;;;15.50;48.00;;;16.30;22.63;99848.25;5015378;28;20258;-79
2022/12/14 09:31:46;;;;;;;26.63;19.33;;;15.90;46.40;;;16.58;22.49;99852.41;5020467;28;20239;-78
2022/12/14 09:34:15;;;;;;;28.80;20.40;;;16.20;45.50;;;16.94;21.52;99849.25;5018900;28;20207;-77
2022/12/14 09:36:44;;;;;;;30.27;21.17;;;16.50;44.80;;;17.17;21.55;99836.16;5016408;28;20261;-78
2022/12/14 09:39:13;;;;;;;33.30;22.93;;;16.70;44.00;;;17.41;20.91;99834.25;5017333;28;20203;-78
2022/12/14 09:42:01;;;;;;;31.97;22.57;;;16.80;43.40;;;17.72;20.97;99833.75;5029553;28;20218;-78
2022/12/14 09:44:48;;;;;;;34.87;22.50;;;17.20;43.60;;;18.20;20.54;99835.09;5014557;28;20211;-76
2022/12/14 09:47:21;;;;;;;29.38;21.73;;;17.70;42.80;;;18.51;20.26;99825.81;5019117;28;20195;-79
2022/12/14 09:49:55;;;;;;;26.10;19.70;;;18.00;42.00;;;18.78;19.53;99826.31;5027530;28;20250;-78
2022/12/14 09:52:34;;;;;;;29.63;20.90;;;18.30;41.30;;;19.10;19.13;99826.44;5038671;28;20207;-76
2022/12/14 09:55:15;;;;;;;28.98;20.90;;;18.40;40.30;;;18.51;18.37;99823.22;5037981;28;20201;-79
2022/12/14 09:57:47;;;;;;;35.30;24.30;;;17.90;38.60;;;15.90;20.26;99823.75;5042660;28;20210;-77
2022/12/14 10:00:19;;;;;;;29.37;20.97;;;15.30;39.40;;;13.32;22.18;99832.72;5039298;28;20218;-76
2022/12/14 10:03:04;;;;;;;30.30;21.53;;;12.80;41.00;;;10.89;25.13;99833.50;5041521;28;20302;-76
2022/12/14 10:05:54;;;;;;;33.40;22.63;;;10.40;43.30;;;10.31;28.59;99839.53;5044618;28;20556;-76
2022/12/14 10:08:27;;;;;;;29.63;21.73;;;10.10;49.50;;;11.63;26.98;99830.47;5044853;28;20256;-76
2022/12/14 10:11:05;;;;;;;32.57;20.47;;;11.20;48.90;;;13.34;24.71;99823.19;5037705;28;20222;-76
2022/12/14 10:13:51;;;;;;;29.23;21.23;;;12.70;47.20;;;14.67;23.24;99816.72;5049259;28;20313;-78
2022/12/14 10:16:31;;;;;;;30.03;21.73;;;13.80;45.20;;;16.11;21.91;99813.47;5044166;28;20231;-78
2022/12/14 10:19:29;;;;;;;28.90;21.77;;;15.20;43.80;;;17.13;20.66;99803.34;5042469;28;20209;-76
2022/12/14 10:22:02;;;;;;;29.53;21.73;;;16.10;42.80;;;17.97;19.72;99799.66;5034482;28;20211;-76
2022/12/14 10:24:36;;;;;;;29.67;22.50;;;17.00;41.50;;;18.53;19.15;99793.53;5035609;28;20206;-76
2022/12/14 10:27:10;;;;;;;29.50;22.67;;;17.50;40.30;;;18.83;18.89;99791.19;5046433;28;20267;-76
2022/12/14 10:29:46;;;;;;;32.57;22.17;;;18.10;40.30;;;19.30;18.37;99782.72;5040749;28;20203;-77
2022/12/14 10:32:22;;;;;;;33.00;23.60;;;18.30;39.50;;;19.71;18.18;99774.50;5040060;28;20305;-74
2022/12/14 10:34:52;;;;;;;30.13;23.17;;;18.60;39.10;;;19.74;17.37;99776.97;5043944;28;20214;-76
2022/12/14 10:37:29;;;;;;;34.17;24.15;;;18.70;37.80;;;19.75;17.61;99772.56;5045466;28;20206;-77
2022/12/14 10:40:13;;;;;;;31.45;23.85;;;18.70;38.10;;;20.14;17.47;99759.09;5040934;28;20198;-74
2022/12/14 10:43:17;;;;;;;30.00;23.83;;;19.00;38.20;;;20.36;16.76;99752.66;5047566;28;20285;-77